createdAt,value
2022-08-19T00:01:42.988Z,100989.28
2022-08-19T00:04:14.470Z,100988.44
2022-08-19T00:06:44.679Z,100992.41
2022-08-19T00:09:15.621Z,100994.78
2022-08-19T00:11:44.670Z,100995.59
2022-08-19T00:14:15.788Z,100999.56
2022-08-19T00:16:45.298Z,100995.59
2022-08-19T00:19:13.459Z,101006.25
2022-08-19T00:21:41.515Z,101008.25
2022-08-19T00:24:11.085Z,101009.81
2022-08-19T00:26:39.743Z,100998.75
2022-08-19T00:29:09.494Z,100999.16
2022-08-19T00:31:38.882Z,101002.28
2022-08-19T00:34:06.785Z,100997.94
2022-08-19T00:36:34.869Z,100994.78
2022-08-19T00:39:03.226Z,100992.81
2022-08-19T00:41:31.950Z,100999.53
2022-08-19T00:44:02.676Z,100992.41
2022-08-19T00:46:33.596Z,100987.66
2022-08-19T00:49:07.516Z,100990.84
2022-08-19T00:51:35.561Z,100990.81
2022-08-19T00:54:04.636Z,100989.25
2022-08-19T00:56:33.520Z,100994.75
2022-08-19T00:59:03.067Z,100993.94
2022-08-19T01:01:31.313Z,100990.78
2022-08-19T01:03:59.156Z,100991.97
2022-08-19T01:06:28.920Z,100991.16
2022-08-19T01:08:57.056Z,100991.97
2022-08-19T01:11:24.862Z,100987.63
2022-08-19T01:13:54.171Z,100993.91
2022-08-19T01:16:25.905Z,100990.72
2022-08-19T01:18:53.967Z,100991.53
2022-08-19T01:21:29.139Z,100990.31
2022-08-19T01:23:58.548Z,100982.41
2022-08-19T01:26:27.628Z,100997.03
2022-08-19T01:29:00.732Z,100995.47
2022-08-19T01:31:32.538Z,101000.19
2022-08-19T01:34:01.623Z,100997.03
2022-08-19T01:36:35.380Z,100993.81
2022-08-19T01:39:10.517Z,100982.38
2022-08-19T01:41:38.925Z,100986.72
2022-08-19T01:44:17.366Z,100982.75
2022-08-19T01:46:48.233Z,100991.44
2022-08-19T01:49:18.208Z,100994.59
2022-08-19T01:51:46.221Z,100987.09
2022-08-19T01:54:27.345Z,100985.88
2022-08-19T01:57:04.094Z,100989.44
2022-08-19T01:59:33.219Z,100984.31
2022-08-19T02:02:01.068Z,100992.16
2022-08-19T02:04:28.959Z,100984.66
2022-08-19T02:06:57.028Z,100991.38
2022-08-19T02:09:26.248Z,100990.59
2022-08-19T02:11:54.423Z,100990.56
2022-08-19T02:14:22.308Z,100991.34
2022-08-19T02:16:50.478Z,100988.16
2022-08-19T02:19:19.004Z,100981.03
2022-08-19T02:21:47.043Z,100982.22
2022-08-19T02:24:14.889Z,100981.81
2022-08-19T02:26:44.129Z,100986.53
2022-08-19T02:29:13.688Z,100979.44
2022-08-19T02:31:41.690Z,100990.09
2022-08-19T02:34:09.805Z,100990.47
2022-08-19T02:36:37.892Z,101004.66
2022-08-19T02:39:09.628Z,101012.56
2022-08-19T02:41:37.483Z,101010.19
2022-08-19T02:44:22.958Z,101003.47
2022-08-19T02:46:56.597Z,101005.38
2022-08-19T02:49:24.589Z,100999.84
2022-08-19T02:51:52.410Z,100996.69
2022-08-19T02:54:20.777Z,100999.03
2022-08-19T02:56:48.609Z,101000.22
2022-08-19T02:59:17.949Z,101002.19
2022-08-19T03:01:48.985Z,101003.75
2022-08-19T03:04:18.180Z,101008.09
2022-08-19T03:06:48.208Z,101004.50
2022-08-19T03:09:16.906Z,101001.34
2022-08-19T03:11:44.917Z,101004.09
2022-08-19T03:14:13.821Z,101009.22
2022-08-19T03:16:46.165Z,101002.50
2022-08-19T03:19:14.758Z,101002.88
2022-08-19T03:21:45.535Z,100992.59
2022-08-19T03:24:14.548Z,100990.25
2022-08-19T03:26:43.939Z,100991.00
2022-08-19T03:29:13.840Z,100986.25
2022-08-19T03:31:52.586Z,100991.72
2022-08-19T03:34:22.966Z,100989.34
2022-08-19T03:36:53.017Z,100992.44
2022-08-19T03:39:20.883Z,101001.09
2022-08-19T03:42:32.306Z,100998.66
2022-08-19T03:44:39.726Z,100999.03
2022-08-19T03:47:09.314Z,100994.25
2022-08-19T03:49:37.642Z,101002.91
2022-08-19T03:52:08.656Z,100990.66
2022-08-19T03:54:39.101Z,100993.81
2022-08-19T03:57:07.503Z,100993.81
2022-08-19T03:59:38.138Z,100989.88
2022-08-19T04:02:11.876Z,100996.97
2022-08-19T04:04:41.417Z,100993.03
2022-08-19T04:07:10.382Z,100993.03
2022-08-19T04:09:38.711Z,100995.38
2022-08-19T04:12:07.926Z,100995.38
2022-08-19T04:14:36.759Z,100994.59
2022-08-19T04:17:06.860Z,100993.81
2022-08-19T04:19:37.117Z,100992.22
2022-08-19T04:22:05.993Z,100990.63
2022-08-19T04:24:34.148Z,100990.63
2022-08-19T04:27:03.598Z,100993.78
2022-08-19T04:29:32.365Z,100994.13
2022-08-19T04:32:08.746Z,100992.13
2022-08-19T04:35:01.306Z,100985.75
2022-08-19T04:37:29.576Z,100987.28
2022-08-19T04:40:21.285Z,100984.88
2022-08-19T04:42:49.181Z,100991.16
2022-08-19T04:45:17.895Z,100993.88
2022-08-19T04:47:57.856Z,101002.13
2022-08-19T04:50:28.711Z,101005.63
2022-08-19T04:52:57.716Z,101013.88
2022-08-19T04:55:26.750Z,101026.44
2022-08-19T04:57:54.778Z,101016.97
2022-08-19T05:00:23.151Z,101019.69
2022-08-19T05:02:51.026Z,101016.53
2022-08-19T05:05:19.590Z,101026.38
2022-08-19T05:07:49.282Z,101029.53
2022-08-19T05:10:17.359Z,101035.06
2022-08-19T05:12:45.161Z,101039.00
2022-08-19T05:15:13.442Z,101045.28
2022-08-19T05:18:02.273Z,101038.25
2022-08-19T05:20:48.136Z,101039.06
2022-08-19T05:23:22.034Z,101046.22
2022-08-19T05:25:51.201Z,101052.94
2022-08-19T05:28:19.408Z,101051.41
2022-08-19T05:30:47.791Z,101051.03
2022-08-19T05:33:16.200Z,101053.41
2022-08-19T05:35:45.097Z,101053.44
2022-08-19T05:38:13.656Z,101050.34
2022-08-19T05:40:42.896Z,101049.59
2022-08-19T05:43:11.072Z,101046.47
2022-08-19T05:45:42.924Z,101045.69
2022-08-19T05:48:12.507Z,101047.28
2022-08-19T05:50:41.485Z,101055.94
2022-08-19T05:53:10.341Z,101047.97
2022-08-19T05:55:40.599Z,101056.63
2022-08-19T05:58:10.045Z,101058.94
2022-08-19T06:00:39.186Z,101063.25
2022-08-19T06:03:12.462Z,101062.81
2022-08-19T06:05:49.660Z,101047.41
2022-08-19T06:08:20.580Z,101049.38
2022-08-19T06:11:14.958Z,101054.88
2022-08-19T06:13:44.237Z,101043.09
2022-08-19T06:16:12.239Z,101055.69
2022-08-19T06:18:40.085Z,101049.84
2022-08-19T06:21:07.914Z,101042.41
2022-08-19T06:23:35.875Z,101049.59
2022-08-19T06:26:03.816Z,101048.50
2022-08-19T06:28:31.697Z,101044.31
2022-08-19T06:31:02.636Z,101046.78
2022-08-19T06:33:30.660Z,101055.63
2022-08-19T06:35:59.743Z,101053.34
2022-08-19T06:38:27.649Z,101043.19
2022-08-19T06:41:02.923Z,101035.84
2022-08-19T06:43:41.229Z,101038.78
2022-08-19T06:46:14.837Z,101036.53
2022-08-19T06:48:45.391Z,101044.56
2022-08-19T06:51:19.260Z,101046.97
2022-08-19T06:53:48.245Z,101052.94
2022-08-19T06:56:18.172Z,101048.22
2022-08-19T06:58:47.361Z,101037.56
2022-08-19T07:01:16.795Z,101048.63
2022-08-19T07:03:44.885Z,101048.63
2022-08-19T07:06:41.246Z,101058.88
2022-08-19T07:09:05.050Z,101062.06
2022-08-19T07:11:34.223Z,101063.22
2022-08-19T07:14:02.429Z,101073.97
2022-08-19T07:16:32.849Z,101055.38
2022-08-19T07:19:12.540Z,101050.97
2022-08-19T07:21:45.012Z,101051.72
2022-08-19T07:24:13.261Z,101066.34
2022-08-19T07:26:43.532Z,101063.50
2022-08-19T07:29:12.614Z,101073.72
2022-08-19T07:31:43.669Z,101075.22
2022-08-19T07:34:14.382Z,101071.16
2022-08-19T07:36:44.230Z,101079.69
2022-08-19T07:39:15.258Z,101076.38
2022-08-19T07:41:43.728Z,101081.00
2022-08-19T07:44:13.843Z,101081.84
2022-08-19T07:46:48.168Z,101084.13
2022-08-19T07:49:20.312Z,101079.88
2022-08-19T07:51:49.929Z,101098.88
2022-08-19T07:54:18.799Z,101098.66
2022-08-19T07:56:46.772Z,101101.50
2022-08-19T07:59:15.764Z,101104.38
2022-08-19T08:01:45.673Z,101105.72
2022-08-19T08:04:31.265Z,101110.22
2022-08-19T08:07:16.815Z,101113.03
2022-08-19T08:09:49.690Z,101121.59
2022-08-19T08:12:33.638Z,101124.91
2022-08-19T08:15:03.805Z,101117.44
2022-08-19T08:17:49.109Z,101123.91
2022-08-19T08:20:20.258Z,101109.94
2022-08-19T08:23:07.360Z,101114.69
2022-08-19T08:25:37.469Z,101114.53
2022-08-19T08:28:06.455Z,101118.75
2022-08-19T08:30:36.828Z,101121.31
2022-08-19T08:33:06.727Z,101119.66
2022-08-19T08:35:35.404Z,101124.50
2022-08-19T08:38:04.701Z,101131.16
2022-08-19T08:40:44.331Z,101125.44
2022-08-19T08:43:22.308Z,101133.53
2022-08-19T08:45:57.669Z,101131.81
2022-08-19T08:48:37.858Z,101127.88
2022-08-19T08:51:09.788Z,101129.88
2022-08-19T08:53:41.814Z,101115.22
2022-08-19T08:56:13.473Z,101122.19
2022-08-19T08:58:54.640Z,101124.19
2022-08-19T09:01:23.471Z,101116.69
2022-08-19T09:03:52.991Z,101115.47
2022-08-19T09:06:26.848Z,101116.47
2022-08-19T09:09:04.532Z,101118.16
2022-08-19T09:11:52.772Z,101125.81
2022-08-19T09:14:51.131Z,101113.44
2022-08-19T09:17:21.281Z,101110.81
2022-08-19T09:19:54.297Z,101111.84
2022-08-19T09:22:25.550Z,101113.94
2022-08-19T09:24:54.559Z,101118.63
2022-08-19T09:27:42.244Z,101110.53
2022-08-19T09:30:16.263Z,101108.22
2022-08-19T09:32:44.932Z,101116.91
2022-08-19T09:35:15.266Z,101106.53
2022-08-19T09:37:44.498Z,101116.13
2022-08-19T09:40:15.752Z,101107.91
2022-08-19T09:42:50.248Z,101107.72
2022-08-19T09:45:23.315Z,101108.09
2022-08-19T09:47:54.218Z,101107.19
2022-08-19T09:50:25.654Z,101107.00
2022-08-19T09:52:57.207Z,101106.66
2022-08-19T09:55:31.026Z,101107.88
2022-08-19T09:57:59.332Z,101110.66
2022-08-19T10:00:27.718Z,101117.84
2022-08-19T10:02:56.014Z,101119.41
2022-08-19T10:05:43.378Z,101115.56
2022-08-19T10:08:13.449Z,101108.66
2022-08-19T10:10:44.186Z,101114.53
2022-08-19T10:13:15.711Z,101114.72
2022-08-19T10:15:47.392Z,101096.88
2022-08-19T10:18:16.641Z,101107.13
2022-08-19T10:20:51.632Z,101114.34
2022-08-19T10:23:20.114Z,101101.22
2022-08-19T10:25:48.742Z,101095.84
2022-08-19T10:28:19.330Z,101090.69
2022-08-19T10:30:48.951Z,101091.50
2022-08-19T10:33:38.619Z,101085.91
2022-08-19T10:36:09.079Z,101092.63
2022-08-19T10:38:37.634Z,101085.31
2022-08-19T10:41:11.032Z,101087.97
2022-08-19T10:43:40.631Z,101079.97
2022-08-19T10:46:13.731Z,101078.94
2022-08-19T10:48:42.491Z,101079.16
2022-08-19T10:51:30.348Z,101079.84
2022-08-19T10:53:59.250Z,101084.63
2022-08-19T10:56:45.959Z,101097.84
2022-08-19T10:59:15.167Z,101087.31
2022-08-19T11:01:45.325Z,101077.16
2022-08-19T11:04:14.723Z,101080.56
2022-08-19T11:06:44.491Z,101076.50
2022-08-19T11:09:13.910Z,101083.81
2022-08-19T11:11:42.377Z,101074.41
2022-08-19T11:14:11.773Z,101073.75
2022-08-19T11:16:40.438Z,101083.41
2022-08-19T11:19:10.063Z,101086.28
2022-08-19T11:21:40.088Z,101080.81
2022-08-19T11:24:12.821Z,101081.47
2022-08-19T11:26:42.974Z,101089.47
2022-08-19T11:29:13.755Z,101082.56
2022-08-19T11:31:43.550Z,101080.84
2022-08-19T11:34:14.275Z,101085.09
2022-08-19T11:36:45.115Z,101078.03
2022-08-19T11:39:16.410Z,101077.91
2022-08-19T11:41:44.856Z,101082.88
2022-08-19T11:44:15.055Z,101080.16
2022-08-19T11:46:46.540Z,101076.97
2022-08-19T11:49:16.419Z,101065.31
2022-08-19T11:51:45.424Z,101064.38
2022-08-19T11:54:16.996Z,101066.03
2022-08-19T11:56:46.548Z,101062.03
2022-08-19T11:59:15.040Z,101058.25
2022-08-19T12:01:43.725Z,101065.69
2022-08-19T12:04:12.569Z,101064.97
2022-08-19T12:06:42.867Z,101062.84
2022-08-19T12:09:12.579Z,101060.06
2022-08-19T12:11:42.018Z,101054.84
2022-08-19T12:14:15.168Z,101064.66
2022-08-19T12:16:52.436Z,101055.16
2022-08-19T12:19:21.860Z,101060.50
2022-08-19T12:21:51.495Z,101055.75
2022-08-19T12:24:24.082Z,101049.34
2022-08-19T12:26:56.524Z,101049.06
2022-08-19T12:29:29.570Z,101047.66
2022-08-19T12:32:02.282Z,101042.34
2022-08-19T12:34:33.298Z,101049.22
2022-08-19T12:37:04.129Z,101043.00
2022-08-19T12:39:32.523Z,101047.38
2022-08-19T12:42:01.792Z,101041.16
2022-08-19T12:44:32.047Z,101042.38
2022-08-19T12:47:01.745Z,101038.94
2022-08-19T12:49:54.132Z,101040.50
2022-08-19T12:52:23.804Z,101030.19
2022-08-19T12:54:53.737Z,101042.56
2022-08-19T12:57:31.880Z,101039.56
2022-08-19T13:00:01.966Z,101036.75
2022-08-19T13:02:38.772Z,101040.34
2022-08-19T13:05:09.908Z,101027.50
2022-08-19T13:07:39.462Z,101033.94
2022-08-19T13:10:09.330Z,101035.97
2022-08-19T13:12:38.592Z,101026.75
2022-08-19T13:15:10.851Z,101029.88
2022-08-19T13:17:42.105Z,101035.19
2022-08-19T13:20:12.065Z,101031.25
2022-08-19T13:22:40.378Z,101031.09
2022-08-19T13:25:11.821Z,101031.75
2022-08-19T13:27:41.909Z,101025.09
2022-08-19T13:30:29.788Z,101028.03
2022-08-19T13:33:20.583Z,101020.06
2022-08-19T13:35:50.718Z,101013.16
2022-08-19T13:38:21.540Z,101006.59
2022-08-19T13:40:51.270Z,101001.34
2022-08-19T13:43:22.915Z,101007.31
2022-08-19T13:45:54.731Z,101002.31
2022-08-19T13:48:23.153Z,101011.09
2022-08-19T13:50:51.336Z,101004.22
2022-08-19T13:53:19.872Z,100997.66
2022-08-19T13:55:47.773Z,100997.59
2022-08-19T13:58:17.027Z,100975.06
2022-08-19T14:00:48.486Z,100981.03
2022-08-19T14:03:17.103Z,100983.19
2022-08-19T14:05:45.024Z,100982.50
2022-08-19T14:08:15.145Z,100986.38
2022-08-19T14:10:45.210Z,100990.97
2022-08-19T14:13:16.775Z,100989.16
2022-08-19T14:15:46.370Z,100987.25
2022-08-19T14:18:14.173Z,100989.72
2022-08-19T14:20:42.306Z,100983.44
2022-08-19T14:23:10.307Z,100980.94
2022-08-19T14:25:38.701Z,100991.16
2022-08-19T14:28:07.912Z,100982.84
2022-08-19T14:30:38.641Z,100983.81
2022-08-19T14:33:10.926Z,100985.38
2022-08-19T14:35:39.731Z,100983.00
2022-08-19T14:38:09.131Z,100983.81
2022-08-19T14:40:37.003Z,100991.63
2022-08-19T14:43:06.944Z,100997.31
2022-08-19T14:45:37.420Z,100999.50
2022-08-19T14:48:07.377Z,100991.84
2022-08-19T14:50:36.939Z,100995.41
2022-08-19T14:53:12.449Z,100994.03
2022-08-19T14:55:43.887Z,101001.69
2022-08-19T14:58:28.470Z,101000.13
2022-08-19T15:00:58.591Z,100998.59
2022-08-19T15:03:28.318Z,101002.66
2022-08-19T15:05:58.473Z,101005.78
2022-08-19T15:08:27.034Z,101015.94
2022-08-19T15:10:55.468Z,101010.78
2022-08-19T15:13:23.361Z,101011.41
2022-08-19T15:15:52.620Z,101016.88
2022-08-19T15:18:21.405Z,101021.72
2022-08-19T15:20:51.875Z,101031.38
2022-08-19T15:23:21.805Z,101026.72
2022-08-19T15:25:56.490Z,101033.91
2022-08-19T15:28:25.115Z,101035.41
2022-08-19T15:30:53.665Z,101041.69
2022-08-19T15:33:21.990Z,101033.84
2022-08-19T15:35:52.480Z,101041.03
2022-08-19T15:38:22.060Z,101038.22
2022-08-19T15:40:50.691Z,101041.16
2022-08-19T15:43:21.318Z,101053.78
2022-08-19T15:45:49.796Z,101048.78
2022-08-19T15:48:18.055Z,101049.53
2022-08-19T15:50:45.932Z,101038.88
2022-08-19T15:53:15.157Z,101043.00
2022-08-19T15:55:45.612Z,101046.59
2022-08-19T15:58:32.769Z,101047.47
2022-08-19T16:01:20.665Z,101054.13
2022-08-19T16:04:14.227Z,101054.66
2022-08-19T16:06:46.006Z,101058.53
2022-08-19T16:09:16.993Z,101052.84
2022-08-19T16:11:56.619Z,101052.78
2022-08-19T16:14:26.153Z,101058.47
2022-08-19T16:16:54.945Z,101055.81
2022-08-19T16:19:22.802Z,101057.94
2022-08-19T16:21:53.682Z,101056.28
2022-08-19T16:24:24.789Z,101050.44
2022-08-19T16:26:52.672Z,101054.47
2022-08-19T16:29:34.164Z,101055.56
2022-08-19T16:32:03.270Z,101056.50
2022-08-19T16:34:31.935Z,101056.22
2022-08-19T16:37:01.562Z,101058.59
2022-08-19T16:39:30.801Z,101051.50
2022-08-19T16:41:59.144Z,101055.25
2022-08-19T16:44:27.461Z,101063.13
2022-08-19T16:46:59.493Z,101062.59
2022-08-19T16:49:52.990Z,101061.00
2022-08-19T16:52:16.334Z,101065.75
2022-08-19T16:54:45.643Z,101068.47
2022-08-19T16:57:14.107Z,101071.84
2022-08-19T16:59:48.343Z,101073.41
2022-08-19T17:02:17.986Z,101070.03
2022-08-19T17:04:55.750Z,101065.09
2022-08-19T17:07:27.638Z,101067.78
2022-08-19T17:09:57.815Z,101064.19
2022-08-19T17:12:30.362Z,101054.66
2022-08-19T17:15:00.803Z,101055.25
2022-08-19T17:17:29.615Z,101057.72
2022-08-19T17:19:57.882Z,101047.31
2022-08-19T17:22:25.754Z,101048.53
2022-08-19T17:24:56.253Z,101045.72
2022-08-19T17:27:32.077Z,101045.28
2022-08-19T17:30:00.973Z,101055.47
2022-08-19T17:32:29.611Z,101048.72
2022-08-19T17:34:57.656Z,101046.44
2022-08-19T17:37:25.548Z,101043.50
2022-08-19T17:39:53.632Z,101047.63
2022-08-19T17:42:21.484Z,101041.59
2022-08-19T17:44:51.158Z,101045.38
2022-08-19T17:47:19.739Z,101042.56
2022-08-19T17:49:48.421Z,101049.06
2022-08-19T17:52:16.307Z,101038.94
2022-08-19T17:54:44.190Z,101042.97
2022-08-19T17:57:12.540Z,101045.53
2022-08-19T17:59:40.488Z,101043.53
2022-08-19T18:02:11.271Z,101056.16
2022-08-19T18:04:39.929Z,101048.72
2022-08-19T18:07:07.840Z,101053.53
2022-08-19T18:09:41.903Z,101050.47
2022-08-19T18:12:12.170Z,101050.66
2022-08-19T18:14:41.415Z,101059.56
2022-08-19T18:17:12.473Z,101056.16
2022-08-19T18:19:43.246Z,101061.94
2022-08-19T18:22:14.389Z,101060.84
2022-08-19T18:24:45.876Z,101067.41
2022-08-19T18:27:14.124Z,101069.69
2022-08-19T18:29:41.940Z,101076.56
2022-08-19T18:32:13.697Z,101081.63
2022-08-19T18:34:43.057Z,101087.44
2022-08-19T18:37:14.249Z,101084.38
2022-08-19T18:39:59.449Z,101082.97
2022-08-19T18:42:44.574Z,101081.44
2022-08-19T18:45:29.962Z,101084.75
2022-08-19T18:48:26.422Z,101087.97
2022-08-19T18:50:56.607Z,101082.69
2022-08-19T18:53:24.551Z,101085.38
2022-08-19T18:55:55.495Z,101092.13
2022-08-19T18:58:26.353Z,101092.13
2022-08-19T19:00:57.069Z,101100.06
2022-08-19T19:03:29.013Z,101103.34
2022-08-19T19:05:57.021Z,101102.66
2022-08-19T19:08:27.222Z,101107.44
2022-08-19T19:10:56.009Z,101111.44
2022-08-19T19:13:23.962Z,101110.75
2022-08-19T19:15:52.028Z,101110.00
2022-08-19T19:18:19.886Z,101113.69
2022-08-19T19:20:49.187Z,101115.03
2022-08-19T19:23:17.096Z,101119.16
2022-08-19T19:25:50.849Z,101114.88
2022-08-19T19:28:27.733Z,101120.59
2022-08-19T19:30:58.653Z,101119.28
2022-08-19T19:33:26.653Z,101118.44
2022-08-19T19:35:56.302Z,101112.97
2022-08-19T19:38:24.287Z,101117.91
2022-08-19T19:40:52.511Z,101117.53
2022-08-19T19:43:20.438Z,101120.31
2022-08-19T19:45:49.634Z,101123.53
2022-08-19T19:48:17.544Z,101114.00
2022-08-19T19:50:53.997Z,101113.34
2022-08-19T19:53:27.988Z,101123.91
2022-08-19T19:55:58.989Z,101127.53
2022-08-19T19:58:29.170Z,101125.59
2022-08-19T20:00:58.743Z,101128.72
2022-08-19T20:03:27.260Z,101132.31
2022-08-19T20:05:59.139Z,101131.63
2022-08-19T20:08:47.075Z,101136.47
2022-08-19T20:11:26.467Z,101133.69
2022-08-19T20:13:54.506Z,101139.97
2022-08-19T20:16:25.369Z,101139.28
2022-08-19T20:18:53.405Z,101137.75
2022-08-19T20:21:27.133Z,101143.31
2022-08-19T20:24:09.324Z,101146.59
2022-08-19T20:26:38.521Z,101136.25
2022-08-19T20:29:13.697Z,101145.84
2022-08-19T20:31:59.101Z,101140.69
2022-08-19T20:34:27.716Z,101133.19
2022-08-19T20:36:55.618Z,101144.41
2022-08-19T20:39:25.998Z,101143.28
2022-08-19T20:41:56.507Z,101137.34
2022-08-19T20:44:25.798Z,101141.28
2022-08-19T20:46:55.477Z,101144.06
2022-08-19T20:49:27.088Z,101157.25
2022-08-19T20:51:55.663Z,101152.59
2022-08-19T20:54:25.109Z,101160.22
2022-08-19T20:56:53.213Z,101154.72
2022-08-19T20:59:21.675Z,101158.66
2022-08-19T21:01:51.709Z,101162.28
2022-08-19T21:04:21.254Z,101163.88
2022-08-19T21:06:49.349Z,101171.91
2022-08-19T21:09:17.417Z,101160.81
2022-08-19T21:11:46.769Z,101164.00
2022-08-19T21:14:14.619Z,101162.78
2022-08-19T21:16:42.682Z,101165.16
2022-08-19T21:19:10.633Z,101166.78
2022-08-19T21:21:38.658Z,101171.94
2022-08-19T21:24:07.320Z,101174.34
2022-08-19T21:26:35.201Z,101174.34
2022-08-19T21:29:04.727Z,101171.97
2022-08-19T21:31:32.680Z,101174.03
2022-08-19T21:34:00.883Z,101167.69
2022-08-19T21:36:28.761Z,101172.88
2022-08-19T21:38:56.620Z,101179.22
2022-08-19T21:41:24.656Z,101178.56
2022-08-19T21:43:52.593Z,101170.69
2022-08-19T21:46:22.626Z,101182.66
2022-08-19T21:48:50.457Z,101178.38
2022-08-19T21:51:18.294Z,101176.88
2022-08-19T21:53:49.025Z,101177.28
2022-08-19T21:56:20.992Z,101188.38
2022-08-19T21:58:48.795Z,101174.94
2022-08-19T22:01:17.098Z,101179.72
2022-08-19T22:03:46.309Z,101182.09
2022-08-19T22:06:14.146Z,101182.88
2022-08-19T22:08:44.650Z,101183.69
2022-08-19T22:11:13.028Z,101179.72
2022-08-19T22:13:41.489Z,101182.09
2022-08-19T22:16:10.814Z,101186.84
2022-08-19T22:18:38.959Z,101180.50
2022-08-19T22:21:12.006Z,101184.44
2022-08-19T22:23:41.524Z,101191.25
2022-08-19T22:26:10.276Z,101194.03
2022-08-19T22:28:39.613Z,101193.63
2022-08-19T22:31:08.136Z,101189.22
2022-08-19T22:33:37.418Z,101192.38
2022-08-19T22:36:07.520Z,101184.06
2022-08-19T22:38:37.383Z,101201.16
2022-08-19T22:41:07.670Z,101195.31
2022-08-19T22:43:37.503Z,101194.97
2022-08-19T22:46:06.481Z,101201.34
2022-08-19T22:48:45.680Z,101192.63
2022-08-19T22:51:31.082Z,101195.78
2022-08-19T22:54:00.829Z,101200.53
2022-08-19T22:56:30.713Z,101199.34
2022-08-19T22:58:58.692Z,101198.97
2022-08-19T23:01:30.218Z,101201.38
2022-08-19T23:03:59.906Z,101206.53
2022-08-19T23:06:33.451Z,101208.53
2022-08-19T23:09:06.715Z,101205.38
2022-08-19T23:11:38.231Z,101201.38
2022-08-19T23:14:11.211Z,101202.19
2022-08-19T23:16:39.572Z,101202.53
2022-08-19T23:19:09.743Z,101198.19
2022-08-19T23:21:37.909Z,101201.38
2022-08-19T23:24:07.606Z,101192.66
2022-08-19T23:26:36.184Z,101200.59
2022-08-19T23:29:23.113Z,101197.41
2022-08-19T23:31:50.988Z,101201.38
2022-08-19T23:34:19.081Z,101208.94
2022-08-19T23:36:48.357Z,101204.59
2022-08-19T23:39:17.872Z,101200.63
2022-08-19T23:41:45.699Z,101201.03
2022-08-19T23:44:14.529Z,101194.69
2022-08-19T23:46:55.250Z,101200.66
2022-08-19T23:49:25.171Z,101208.59
2022-08-19T23:51:53.320Z,101204.63
2022-08-19T23:54:22.563Z,101204.63
2022-08-19T23:57:02.235Z,101203.84
2022-08-19T23:59:30.159Z,101207.81
